Ocean Happy — VRFK7 — position and weather

sailwx.info

Track history (hours):
 
Tides and Currents Weather Stations Pressure Air Temp Water Temp Dewpoint Dewpoint Depression Visibility Wind Speed Wind Dir Waves Ship Positions

Ocean Happy

Last reported at 2018-Apr-18 05:36 UTC. Time now 2018-Apr-20 01:24 UTC.
Position N 36°01' W 005°13'.

Length 230 m; draft 14.7 m.

Type: Cargo ship. MMSI: 477691500.

Date/timePositionNaut miles runAvg speedWind from/ knotsBaromVisibWave heightAir tempDewpointWater temp
2018-Apr-18 05:36N 36°01' W 005°13'114.4
2018-Apr-18 05:30N 36°00' W 005°15'714.9
2018-Apr-18 05:00N 35°58' W 005°24'  
2018-Apr-14 17:52N 39°23' W 027°30'412.3
2018-Apr-14 17:30N 39°24' W 027°35'612.5
2018-Apr-14 17:00N 39°25' W 027°43'612.6
2018-Apr-14 16:30N 39°27' W 027°51'712.6
2018-Apr-14 15:57N 39°28' W 027°60'612.7
2018-Apr-14 15:30N 39°29' W 028°07'612.3
2018-Apr-14 15:00N 39°31' W 028°15'612.4
2018-Apr-14 14:30N 39°32' W 028°23'712.8
2018-Apr-14 14:00N 39°33' W 028°31'612.9
2018-Apr-14 13:30N 39°34' W 028°39'612.5
2018-Apr-14 13:00N 39°36' W 028°47'612.2
2018-Apr-14 12:31N 39°37' W 028°54'712.3
2018-Apr-14 11:59N 39°39' W 029°03'612.1
2018-Apr-14 11:28N 39°40' W 029°11'612.4
2018-Apr-14 11:00N 39°41' W 029°18'712.6
2018-Apr-14 10:28N 39°43' W 029°26'612.3
2018-Apr-14 10:00N 39°44' W 029°34'1013.0
2018-Apr-14 09:16N 39°46' W 029°46'  
Track history (hours):
 
Tides and Currents Weather Stations Pressure Air Temp Water Temp Dewpoint Dewpoint Depression Visibility Wind Speed Wind Dir Waves Ship Positions

Ocean Happy

Last reported at 2018-Apr-18 05:36 UTC. Time now 2018-Apr-20 01:24 UTC.
Position N 36°01' W 005°13'.

Length 230 m; draft 14.7 m.

Type: Cargo ship. MMSI: 477691500.

Date/timePositionNaut miles runAvg speedWind from/ knotsBaromVisibWave heightAir tempDewpointWater temp
2018-Apr-18 05:36N 36°01' W 005°13'114.4
2018-Apr-18 05:30N 36°00' W 005°15'714.9
2018-Apr-18 05:00N 35°58' W 005°24'  
2018-Apr-14 17:52N 39°23' W 027°30'412.3
2018-Apr-14 17:30N 39°24' W 027°35'612.5
2018-Apr-14 17:00N 39°25' W 027°43'612.6
2018-Apr-14 16:30N 39°27' W 027°51'712.6
2018-Apr-14 15:57N 39°28' W 027°60'612.7
2018-Apr-14 15:30N 39°29' W 028°07'612.3
2018-Apr-14 15:00N 39°31' W 028°15'612.4
2018-Apr-14 14:30N 39°32' W 028°23'712.8
2018-Apr-14 14:00N 39°33' W 028°31'612.9
2018-Apr-14 13:30N 39°34' W 028°39'612.5
2018-Apr-14 13:00N 39°36' W 028°47'612.2
2018-Apr-14 12:31N 39°37' W 028°54'712.3
2018-Apr-14 11:59N 39°39' W 029°03'612.1
2018-Apr-14 11:28N 39°40' W 029°11'612.4
2018-Apr-14 11:00N 39°41' W 029°18'712.6
2018-Apr-14 10:28N 39°43' W 029°26'612.3
2018-Apr-14 10:00N 39°44' W 029°34'1013.0
2018-Apr-14 09:16N 39°46' W 029°46'  

Dump ship's entire track history